Hardin, MT (59034)

12:16 PM MST on December 10, 2016 (GMT -0700)
Billings Logan International | | Change Station
Active Advisory: Winter Weather Advisory

Elev 3570 ft 45.81 °N, 108.54 °W | Updated 23 minutes ago

Snow
Snow
14 °F
Feels Like 14 °F
N
0
Wind Variable Wind from North

Today
High -- | Low -- °F
--% Chance of Precip.
Yesterday
High -- | Low -- °F
Precip. -- in
Pressure 29.86 in
Visibility 5.0 miles
Clouds Few 1500 ft
Mostly Cloudy 3900 ft
Overcast 7000 ft
Dew Point 9 °F
Humidity 80%
Rainfall 0.12 in
Snow Depth Not available.
7:40 AM 4:26 PM
Waxing Gibbous, 85% visible
METAR KBIL 101853Z 00000KT 5SM -SN FEW015 BKN039 OVC070 M10/M13 A2967 RMK AO2 SNB02 SLP110 P0000 T11001128
Pressure 29.86 in
Visibility 5.0 miles
Clouds Few 1500 ft
Mostly Cloudy 3900 ft
Overcast 7000 ft
Dew Point 9 °F
Humidity 80%
Rainfall 0.12 in
Snow Depth Not available.
7:40 AM 4:26 PM
Waxing Gibbous, 85% visible
METAR KBIL 101853Z 00000KT 5SM -SN FEW015 BKN039 OVC070 M10/M13 A2967 RMK AO2 SNB02 SLP110 P0000 T11001128

10-Day Weather Forecast

Almanac

Astronomy

Dec. 10, 2016 Rise Set
Actual Time
Civil Twilight
Nautical Twilight
Astronomical Twilight
Moon
Length of Visible Light
Length of Day
Tomorrow will be .
, % of the Moon is Illuminated

Today's Extremes

State Highs State Lows

Community

WunderPhotos

Upload Photos

1,956,627 photos uploaded!

WunderBlog® & News

Nearby

Air Quality

  Air Quality AQ Index Pollutant
Not available.

Snow Depth

Station Depth Elevation

Earthquake Activity

City Distance Mag. Time & Date
Minimum magnitude displayed is 2.5.

Coastal Water Temperatures

Place Temperature

Stations

Nearby Weather Stations

Station Location Temp. Windchill Dew Point Humidity Wind Precip. Elev Updated Type
                   

Watches & Warnings

Winter Weather Advisory
Issued: 10:04 AM MST Dec. 10, 2016 – National Weather Service

... Winter Weather Advisory in effect until 6 PM MST this
evening...

The National Weather Service in Billings has issued a Winter
Weather Advisory for snow... which is in effect until 6 PM MST
this evening.

* Impacts... difficult travel... slick and snow covered roads. Poor
visibility at times.

* Timing... through this evening.

* Snow accumulation... 1 to 3 inches.

Precautionary/preparedness actions...

A Winter Weather Advisory can be issued for a variety of winter
weather conditions such as light snow... blowing snow... sleet...
freezing rain... and extreme wind chills.